Darstellungsparameter: Aktuell verwendete Einstellungen:
Skalierung der Graphiken ... ?
xyx+y,   Skalierungsfaktor:      Skalierung: Modus: x, Faktor: 1
Darstellungszeitraum ... ?
Vom - - bis: - -   Zeitraum: 21.04.2021 - 21.04.2021
Min/Max/Avg-Anzeige ... ?
Zeige MMA aktuell
Zeige MMA Monat
Zeige MMA alles
Zeige --A aktuell
Zeige --A Monat
Zeige --A alles
Keine MMA-Anzeige
MMA:
Minimum Maximum Average (ber die Originaldaten)
MMA-Basis: 23.02.2003 - 22.04.2021
Quicknavigation für Darstellung... ?
Tage:      1T, 2T, 3T, 5T -1T -2T -3T -5T +1T +2T +3T +5T
Wochen: 1W, 2W, 3W -1W -2W -3W +1W +2W +3W
Monate: 1M, 3M, 6M -1M -3M -6M +1M +3M +6M
Jahre:    1J, 3J, 5J, 10J -1J -3J -5J -10J +1J +3J +5J +10J
Nutze für die Darstellung ... ?
Originaldaten oder Mittelwerte auf ...
Stundenbasis Tagesbasis Wochenbasis
Monatsbasis Jahresbasis      Datenbasis: Original-Daten
Darstellen als:
Statistik (Auto) Statistik J:M      Darstellung:
Zur Graphik,    zurück zur Übersicht aller Sensoren.
 
Tabellarische Datenbersicht: ?
 
Sensor: Nr:Datum:Temp:Abs-Feuchte:Windchill:Wind:
Aussen-T/F 1 21-04-2021 02:00:00 5.6 C 6.36 g/m*3 5.6 C 0 km/h
2 21-04-2021 02:05:00 5.5 C 6.32 g/m*3 5.5 C 0 km/h
3 21-04-2021 02:10:00 5.5 C 6.25 g/m*3 5.5 C 0 km/h
4 21-04-2021 02:15:00 5.6 C 6.36 g/m*3 5.6 C 0 km/h
5 21-04-2021 02:20:00 5.6 C 6.36 g/m*3 5.6 C 0 km/h
6 21-04-2021 02:25:00 5.6 C 6.29 g/m*3 5.6 C 0 km/h
7 21-04-2021 02:30:00 5.5 C 6.25 g/m*3 5.5 C 0 km/h
8 21-04-2021 02:35:00 5.4 C 6.21 g/m*3 5.4 C 0 km/h
9 21-04-2021 02:40:00 5.3 C 6.17 g/m*3 5.3 C 0 km/h
10 21-04-2021 02:45:00 5.3 C 6.24 g/m*3 5.3 C 0 km/h
11 21-04-2021 02:50:00 5.3 C 6.24 g/m*3 5.3 C 0 km/h
12 21-04-2021 02:55:00 5.2 C 6.13 g/m*3 5.2 C 0 km/h
13 21-04-2021 03:00:00 5.1 C 6.09 g/m*3 5.1 C 0 km/h
14 21-04-2021 03:05:00 4.9 C 6.01 g/m*3 4.9 C 0 km/h
15 21-04-2021 03:10:00 4.7 C 5.93 g/m*3 4.7 C 0 km/h
16 21-04-2021 03:15:00 4.6 C 5.96 g/m*3 4.6 C 0 km/h
17 21-04-2021 03:20:00 4.6 C 5.96 g/m*3 4.6 C 0 km/h
18 21-04-2021 03:25:00 4.6 C 6.02 g/m*3 4.6 C 0 km/h
19 21-04-2021 03:30:00 4.4 C 5.94 g/m*3 4.4 C 0 km/h
20 21-04-2021 03:35:00 4.4 C 5.94 g/m*3 4.4 C 0 km/h
21 21-04-2021 03:40:00 4.3 C 5.9 g/m*3 4.3 C 0 km/h
22 21-04-2021 03:45:00 4.3 C 5.9 g/m*3 4.3 C 0 km/h
23 21-04-2021 03:50:00 4.3 C 5.97 g/m*3 4.3 C 0 km/h
24 21-04-2021 03:55:00 4.4 C 6.01 g/m*3 4.4 C 1.6 km/h
25 21-04-2021 04:00:00 4.5 C 6.05 g/m*3 4.5 C 0 km/h
Sensor: Nr:Datum:Temp:Abs-Feuchte:Windchill:Wind:
Aussen-T/F 26 21-04-2021 04:05:00 4.4 C 5.94 g/m*3 4.4 C 0 km/h
27 21-04-2021 04:10:00 4.2 C 5.86 g/m*3 4.2 C 0 km/h
28 21-04-2021 04:15:00 4.2 C 5.86 g/m*3 4.2 C 0 km/h
29 21-04-2021 04:20:00 4.1 C 5.82 g/m*3 4.1 C 0 km/h
30 21-04-2021 04:25:00 3.9 C 5.81 g/m*3 3.9 C 0 km/h
31 21-04-2021 04:30:00 4 C 5.85 g/m*3 4 C 0 km/h
32 21-04-2021 04:35:00 4 C 5.85 g/m*3 4 C 0 km/h
33 21-04-2021 04:40:00 3.9 C 5.81 g/m*3 3.9 C 0 km/h
34 21-04-2021 04:45:00 3.8 C 5.77 g/m*3 3.8 C 0 km/h
35 21-04-2021 04:50:00 3.7 C 5.67 g/m*3 3.7 C 0 km/h
36 21-04-2021 04:55:00 3.6 C 5.69 g/m*3 3.6 C 0 km/h
37 21-04-2021 05:00:00 3.6 C 5.69 g/m*3 3.6 C 1.6 km/h
38 21-04-2021 05:05:00 3.7 C 5.8 g/m*3 3.7 C 1.6 km/h
39 21-04-2021 05:10:00 3.8 C 5.83 g/m*3 3.8 C 0 km/h
40 21-04-2021 05:15:00 3.8 C 5.83 g/m*3 3.8 C 0 km/h
41 21-04-2021 05:20:00 3.7 C 5.73 g/m*3 3.7 C 0 km/h
42 21-04-2021 05:25:00 3.6 C 5.69 g/m*3 3.6 C 0 km/h
43 21-04-2021 05:30:00 3.4 C 5.62 g/m*3 3.4 C 0 km/h
44 21-04-2021 05:35:00 3.3 C 5.58 g/m*3 3.3 C 0 km/h
45 21-04-2021 05:40:00 3.3 C 5.64 g/m*3 3.3 C 0 km/h
46 21-04-2021 05:45:00 3.3 C 5.64 g/m*3 3.3 C 0 km/h
47 21-04-2021 05:50:00 3.3 C 5.64 g/m*3 3.3 C 0 km/h
48 21-04-2021 05:55:00 3.3 C 5.64 g/m*3 3.3 C 0 km/h
49 21-04-2021 06:00:00 3.2 C 5.6 g/m*3 3.2 C 0 km/h
50 21-04-2021 06:05:00 3.1 C 5.57 g/m*3 3.1 C 0 km/h
Sensor: Nr:Datum:Temp:Abs-Feuchte:Windchill:Wind:
Aussen-T/F 51 21-04-2021 06:10:00 2.9 C 5.49 g/m*3 2.9 C 0 km/h
52 21-04-2021 06:15:00 2.9 C 5.49 g/m*3 2.9 C 0 km/h
53 21-04-2021 06:20:00 2.8 C 5.46 g/m*3 2.8 C 0 km/h
54 21-04-2021 06:25:00 2.7 C 5.42 g/m*3 2.7 C 0 km/h
55 21-04-2021 06:30:00 2.7 C 5.42 g/m*3 2.7 C 0 km/h
56 21-04-2021 06:35:00 2.7 C 5.42 g/m*3 2.7 C 0 km/h
57 21-04-2021 06:40:00 2.7 C 5.42 g/m*3 2.7 C 0 km/h
58 21-04-2021 06:45:00 2.7 C 5.42 g/m*3 2.7 C 0 km/h
59 21-04-2021 06:50:00 2.6 C 5.38 g/m*3 2.6 C 0 km/h
60 21-04-2021 06:55:00 2.6 C 5.44 g/m*3 2.6 C 0 km/h
61 21-04-2021 07:00:00 2.6 C 5.44 g/m*3 2.6 C 0 km/h
62 21-04-2021 07:05:00 2.7 C 5.48 g/m*3 2.7 C 0 km/h
63 21-04-2021 07:10:00 2.7 C 5.48 g/m*3 2.7 C 0 km/h
64 21-04-2021 07:15:00 2.8 C 5.51 g/m*3 2.8 C 0 km/h
65 21-04-2021 07:20:00 2.9 C 5.55 g/m*3 2.9 C 0 km/h
66 21-04-2021 07:25:00 3 C 5.59 g/m*3 3 C 0 km/h
67 21-04-2021 07:30:00 3.1 C 5.63 g/m*3 3.1 C 1.6 km/h
68 21-04-2021 07:35:00 3.2 C 5.72 g/m*3 3.2 C 0 km/h
69 21-04-2021 07:40:00 3.3 C 5.76 g/m*3 3.3 C 0 km/h
70 21-04-2021 07:45:00 3.4 C 5.8 g/m*3 3.4 C 0 km/h
71 21-04-2021 07:50:00 3.6 C 5.88 g/m*3 3.6 C 3.2 km/h
72 21-04-2021 07:55:00 3.7 C 5.92 g/m*3 3.7 C 3.2 km/h
73 21-04-2021 08:00:00 3.7 C 5.92 g/m*3 3.7 C 0 km/h
74 21-04-2021 08:05:00 3.8 C 5.96 g/m*3 3.8 C 0 km/h
75 21-04-2021 08:10:00 3.9 C 6 g/m*3 3.9 C 1.6 km/h
Sensor: Nr:Datum:Temp:Abs-Feuchte:Windchill:Wind:
Aussen-T/F 76 21-04-2021 08:15:00 3.9 C 6 g/m*3 3.9 C 1.6 km/h
77 21-04-2021 08:20:00 4.1 C 6.08 g/m*3 4.1 C 0 km/h
78 21-04-2021 08:25:00 4.2 C 6.12 g/m*3 4.2 C 0 km/h
79 21-04-2021 08:30:00 4.3 C 6.16 g/m*3 4.3 C 0 km/h
80 21-04-2021 08:35:00 4.5 C 6.24 g/m*3 4.5 C 0 km/h
81 21-04-2021 08:40:00 4.7 C 6.33 g/m*3 4.7 C 1.6 km/h
82 21-04-2021 08:45:00 4.8 C 6.37 g/m*3 4.8 C 4.8 km/h
83 21-04-2021 08:50:00 4.9 C 6.41 g/m*3 4.9 C 1.6 km/h
84 21-04-2021 08:55:00 5 C 6.46 g/m*3 5 C 1.6 km/h
85 21-04-2021 09:00:00 5.1 C 6.5 g/m*3 5.1 C 1.6 km/h
86 21-04-2021 09:05:00 5.2 C 6.47 g/m*3 5.2 C 0 km/h
87 21-04-2021 09:10:00 5.3 C 6.52 g/m*3 5.3 C 0 km/h
88 21-04-2021 09:15:00 5.4 C 6.56 g/m*3 5.4 C 0 km/h
89 21-04-2021 09:20:00 5.6 C 6.65 g/m*3 5.6 C 0 km/h
90 21-04-2021 09:25:00 5.7 C 6.69 g/m*3 5.7 C 0 km/h
91 21-04-2021 09:30:00 5.9 C 6.78 g/m*3 5.9 C 0 km/h
92 21-04-2021 09:35:00 6.1 C 6.87 g/m*3 6.1 C 0 km/h
93 21-04-2021 09:40:00 6.2 C 6.91 g/m*3 6.2 C 0 km/h
94 21-04-2021 09:45:00 6.4 C 7 g/m*3 6.4 C 0 km/h
95 21-04-2021 09:50:00 6.7 C 7.07 g/m*3 6.7 C 0 km/h
96 21-04-2021 09:55:00 6.9 C 7.16 g/m*3 6.9 C 0 km/h
97 21-04-2021 10:00:00 7.1 C 7.25 g/m*3 7.1 C 0 km/h
98 21-04-2021 10:05:00 7.3 C 7.27 g/m*3 7.3 C 0 km/h
99 21-04-2021 10:10:00 7.6 C 7.41 g/m*3 7.6 C 0 km/h
100 21-04-2021 10:15:00 7.9 C 7.47 g/m*3 7.9 C 0 km/h
Sensor: Nr:Datum:Temp:Abs-Feuchte:Windchill:Wind:
Aussen-T/F 101 21-04-2021 10:20:00 8.2 C 7.62 g/m*3 8.2 C 0 km/h
102 21-04-2021 10:25:00 8.6 C 7.56 g/m*3 8.6 C 0 km/h
103 21-04-2021 10:30:00 9 C 7.58 g/m*3 9 C 0 km/h
104 21-04-2021 10:35:00 9.4 C 7.78 g/m*3 9.4 C 0 km/h
105 21-04-2021 10:40:00 9.9 C 7.75 g/m*3 9.9 C 1.6 km/h
106 21-04-2021 10:45:00 10.3 C 7.85 g/m*3 10.3 C 1.6 km/h
107 21-04-2021 10:50:00 10.8 C 7.81 g/m*3 10.8 C 0 km/h
108 21-04-2021 10:55:00 11.3 C 8.06 g/m*3 11.3 C 0 km/h
109 21-04-2021 11:00:00 11.7 C 7.95 g/m*3 11.7 C 0 km/h
110 21-04-2021 11:05:00 12.1 C 7.94 g/m*3 12.1 C 0 km/h
111 21-04-2021 11:10:00 12.4 C 7.98 g/m*3 12.4 C 0 km/h
112 21-04-2021 11:15:00 12.7 C 8.13 g/m*3 12.7 C 0 km/h
113 21-04-2021 11:20:00 12.9 C 8.11 g/m*3 12.9 C 4.8 km/h
114 21-04-2021 11:25:00 13.2 C 8.15 g/m*3 13.2 C 0 km/h
115 21-04-2021 11:30:00 13.4 C 8.25 g/m*3 13.4 C 0 km/h
116 21-04-2021 11:35:00 13.7 C 8.41 g/m*3 13.7 C 0 km/h
117 21-04-2021 11:40:00 14.1 C 8.5 g/m*3 14.1 C 0 km/h
118 21-04-2021 11:45:00 14.3 C 8.35 g/m*3 14.3 C 6.4 km/h
119 21-04-2021 11:50:00 14.6 C 8.26 g/m*3 14.6 C 1.6 km/h
120 21-04-2021 11:55:00 14.7 C 8.44 g/m*3 14.7 C 0 km/h
121 21-04-2021 12:00:00 14.9 C 8.28 g/m*3 14.9 C 4.8 km/h
122 21-04-2021 12:05:00 15.2 C 8.44 g/m*3 15.2 C 4.8 km/h
123 21-04-2021 12:10:00 15.3 C 8.49 g/m*3 15.3 C 0 km/h
124 21-04-2021 12:15:00 15.6 C 8.51 g/m*3 15.6 C 4.8 km/h
125 21-04-2021 12:20:00 15.8 C 8.62 g/m*3 15.8 C 4.8 km/h
Sensor: Nr:Datum:Temp:Abs-Feuchte:Windchill:Wind:
Aussen-T/F 126 21-04-2021 12:25:00 15.9 C 8.4 g/m*3 15.9 C 4.8 km/h
127 21-04-2021 12:30:00 16.1 C 8.91 g/m*3 16.1 C 3.2 km/h
128 21-04-2021 12:35:00 16.2 C 8.55 g/m*3 16.2 C 8.1 km/h
129 21-04-2021 12:40:00 16.2 C 8.41 g/m*3 16.2 C 11.3 km/h
130 21-04-2021 12:45:00 16.2 C 8.41 g/m*3 16.2 C 9.7 km/h
131 21-04-2021 12:50:00 16.2 C 8.55 g/m*3 16.2 C 9.7 km/h
132 21-04-2021 12:55:00 16.2 C 8.55 g/m*3 16.2 C 4.8 km/h
133 21-04-2021 13:00:00 16.3 C 8.6 g/m*3 16.3 C 6.4 km/h
134 21-04-2021 13:05:00 16.4 C 8.1 g/m*3 16.4 C 9.7 km/h
135 21-04-2021 13:10:00 16.5 C 8 g/m*3 16.5 C 11.3 km/h
136 21-04-2021 13:15:00 16.5 C 8.14 g/m*3 16.5 C 6.4 km/h
137 21-04-2021 13:20:00 16.6 C 8.19 g/m*3 16.6 C 9.7 km/h
138 21-04-2021 13:25:00 16.8 C 8.01 g/m*3 16.8 C 8.1 km/h
139 21-04-2021 13:30:00 17 C 8.1 g/m*3 17 C 8.1 km/h
140 21-04-2021 13:35:00 17.1 C 7.86 g/m*3 17.1 C 9.7 km/h
141 21-04-2021 13:40:00 17.1 C 8.01 g/m*3 17.1 C 14.5 km/h
142 21-04-2021 13:45:00 17.1 C 7.71 g/m*3 17.1 C 4.8 km/h
143 21-04-2021 13:50:00 17.2 C 8.05 g/m*3 17.2 C 8.1 km/h
144 21-04-2021 13:55:00 17.5 C 8.2 g/m*3 17.5 C 11.3 km/h
145 21-04-2021 14:00:00 17.6 C 7.95 g/m*3 17.6 C 14.5 km/h
146 21-04-2021 14:05:00 17.6 C 7.95 g/m*3 17.6 C 9.7 km/h
147 21-04-2021 14:10:00 17.4 C 7.85 g/m*3 17.4 C 12.9 km/h
148 21-04-2021 14:15:00 17.3 C 7.66 g/m*3 17.3 C 9.7 km/h
149 21-04-2021 14:20:00 17.2 C 7.47 g/m*3 17.2 C 9.7 km/h
150 21-04-2021 14:25:00 17.1 C 7.42 g/m*3 17.1 C 4.8 km/h
Sensor: Nr:Datum:Temp:Abs-Feuchte:Windchill:Wind:
Aussen-T/F 151 21-04-2021 14:30:00 16.9 C 7.05 g/m*3 16.9 C 6.4 km/h
152 21-04-2021 14:35:00 17 C 7.52 g/m*3 17 C 9.7 km/h
153 21-04-2021 14:40:00 17.2 C 7.18 g/m*3 17.2 C 11.3 km/h
154 21-04-2021 14:45:00 17.3 C 7.51 g/m*3 17.3 C 9.7 km/h
155 21-04-2021 14:50:00 17.6 C 7.5 g/m*3 17.6 C 11.3 km/h
156 21-04-2021 14:55:00 17.7 C 7.39 g/m*3 17.7 C 11.3 km/h
157 21-04-2021 15:00:00 18 C 7.37 g/m*3 18 C 11.3 km/h
158 21-04-2021 15:05:00 18.3 C 7.51 g/m*3 18.3 C 12.9 km/h
159 21-04-2021 15:10:00 18.2 C 7.31 g/m*3 18.2 C 16.1 km/h
160 21-04-2021 15:15:00 18.1 C 7.26 g/m*3 18.1 C 16.1 km/h
161 21-04-2021 15:20:00 18.3 C 7.51 g/m*3 18.3 C 9.7 km/h
162 21-04-2021 15:25:00 18.4 C 7.55 g/m*3 18.4 C 11.3 km/h
163 21-04-2021 15:30:00 18.7 C 7.68 g/m*3 18.7 C 6.4 km/h
164 21-04-2021 15:35:00 18.7 C 7.68 g/m*3 18.7 C 14.5 km/h
165 21-04-2021 15:40:00 18.3 C 7.35 g/m*3 18.3 C 9.7 km/h
166 21-04-2021 15:45:00 18 C 7.37 g/m*3 18 C 8.1 km/h
167 21-04-2021 15:50:00 17.9 C 7.48 g/m*3 17.9 C 6.4 km/h
168 21-04-2021 15:55:00 17.9 C 7.48 g/m*3 17.9 C 6.4 km/h
169 21-04-2021 16:00:00 18.1 C 7.73 g/m*3 18.1 C 4.8 km/h
170 21-04-2021 16:05:00 18.3 C 7.51 g/m*3 18.3 C 11.3 km/h
171 21-04-2021 16:10:00 18.8 C 7.25 g/m*3 18.8 C 9.7 km/h
172 21-04-2021 16:15:00 19.2 C 7.75 g/m*3 19.2 C 12.9 km/h
173 21-04-2021 16:20:00 19.4 C 8.34 g/m*3 19.4 C 12.9 km/h
174 21-04-2021 16:25:00 19.3 C 7.96 g/m*3 19.3 C 14.5 km/h
175 21-04-2021 16:30:00 19.3 C 8.13 g/m*3 19.3 C 14.5 km/h
Sensor: Nr:Datum:Temp:Abs-Feuchte:Windchill:Wind:
Aussen-T/F 176 21-04-2021 16:35:00 19.2 C 8.41 g/m*3 19.2 C 12.9 km/h
177 21-04-2021 16:40:00 18.9 C 8.26 g/m*3 18.9 C 17.7 km/h
178 21-04-2021 16:45:00 18.8 C 8.21 g/m*3 18.8 C 11.3 km/h
179 21-04-2021 16:50:00 18.8 C 8.37 g/m*3 18.8 C 11.3 km/h
180 21-04-2021 16:55:00 18.7 C 8.33 g/m*3 18.7 C 12.9 km/h
181 21-04-2021 17:00:00 18.6 C 8.28 g/m*3 18.6 C 12.9 km/h
182 21-04-2021 17:05:00 18.6 C 8.12 g/m*3 18.6 C 9.7 km/h
183 21-04-2021 17:10:00 18.7 C 7.84 g/m*3 18.7 C 9.7 km/h
184 21-04-2021 17:15:00 18.8 C 7.41 g/m*3 18.8 C 14.5 km/h
185 21-04-2021 17:20:00 18.7 C 7.2 g/m*3 18.7 C 12.9 km/h
186 21-04-2021 17:25:00 18.6 C 7.16 g/m*3 18.6 C 8.1 km/h
187 21-04-2021 17:30:00 18.4 C 7.08 g/m*3 18.4 C 11.3 km/h
188 21-04-2021 17:35:00 18.2 C 7.31 g/m*3 18.2 C 16.1 km/h
189 21-04-2021 17:40:00 17.7 C 7.54 g/m*3 17.7 C 12.9 km/h
190 21-04-2021 17:45:00 17.3 C 7.37 g/m*3 17.3 C 12.9 km/h
191 21-04-2021 17:50:00 16.9 C 7.34 g/m*3 16.9 C 14.5 km/h
192 21-04-2021 17:55:00 16.8 C 7.43 g/m*3 16.8 C 11.3 km/h
193 21-04-2021 18:00:00 16.7 C 7.53 g/m*3 16.7 C 16.1 km/h
194 21-04-2021 18:05:00 16.8 C 7.43 g/m*3 16.8 C 12.9 km/h
195 21-04-2021 18:10:00 16.8 C 7.29 g/m*3 16.8 C 9.7 km/h
196 21-04-2021 18:15:00 16.8 C 7.15 g/m*3 16.8 C 9.7 km/h
197 21-04-2021 18:20:00 16.7 C 7.11 g/m*3 16.7 C 9.7 km/h
198 21-04-2021 18:25:00 16.6 C 7.35 g/m*3 16.6 C 6.4 km/h
199 21-04-2021 18:30:00 16.4 C 6.98 g/m*3 16.4 C 9.7 km/h
200 21-04-2021 18:35:00 16.4 C 7.12 g/m*3 16.4 C 9.7 km/h
Sensor: Nr:Datum:Temp:Abs-Feuchte:Windchill:Wind:
Aussen-T/F 201 21-04-2021 18:40:00 16.4 C 6.84 g/m*3 16.4 C 9.7 km/h
202 21-04-2021 18:45:00 16.3 C 7.08 g/m*3 16.3 C 6.4 km/h
203 21-04-2021 18:50:00 16.3 C 7.08 g/m*3 16.3 C 6.4 km/h
204 21-04-2021 18:55:00 16.3 C 6.94 g/m*3 16.3 C 1.6 km/h
205 21-04-2021 19:00:00 16.3 C 6.94 g/m*3 16.3 C 0 km/h
206 21-04-2021 19:05:00 16.2 C 7.17 g/m*3 16.2 C 6.4 km/h
207 21-04-2021 19:10:00 16.2 C 7.03 g/m*3 16.2 C 6.4 km/h
208 21-04-2021 19:15:00 16.2 C 7.17 g/m*3 16.2 C 4.8 km/h
209 21-04-2021 19:20:00 16.2 C 7.17 g/m*3 16.2 C 0 km/h
210 21-04-2021 19:25:00 16.2 C 7.86 g/m*3 16.2 C 0 km/h
211 21-04-2021 19:30:00 16.1 C 7.26 g/m*3 16.1 C 0 km/h
212 21-04-2021 19:35:00 16.1 C 7.4 g/m*3 16.1 C 4.8 km/h
213 21-04-2021 19:40:00 16.1 C 7.26 g/m*3 16.1 C 0 km/h
214 21-04-2021 19:45:00 16.1 C 7.26 g/m*3 16.1 C 0 km/h
215 21-04-2021 19:50:00 16.1 C 7.4 g/m*3 16.1 C 0 km/h
216 21-04-2021 19:55:00 16 C 7.36 g/m*3 16 C 0 km/h
217 21-04-2021 20:00:00 15.9 C 7.72 g/m*3 15.9 C 0 km/h
218 21-04-2021 20:05:00 15.9 C 7.85 g/m*3 15.9 C 0 km/h
219 21-04-2021 20:10:00 15.7 C 7.63 g/m*3 15.7 C 0 km/h
220 21-04-2021 20:15:00 15.4 C 7.36 g/m*3 15.4 C 3.2 km/h
221 21-04-2021 20:20:00 15.2 C 7.27 g/m*3 15.2 C 9.7 km/h
222 21-04-2021 20:25:00 15 C 7.05 g/m*3 15 C 6.4 km/h
223 21-04-2021 20:30:00 14.9 C 7.01 g/m*3 14.9 C 6.4 km/h
224 21-04-2021 20:35:00 14.8 C 7.47 g/m*3 14.8 C 1.6 km/h
225 21-04-2021 20:40:00 14.7 C 7.18 g/m*3 14.7 C 1.6 km/h
Sensor: Nr:Datum:Temp:Abs-Feuchte:Windchill:Wind:
Aussen-T/F 226 21-04-2021 20:45:00 14.5 C 7.34 g/m*3 14.5 C 0 km/h
227 21-04-2021 20:50:00 14.2 C 7.33 g/m*3 14.2 C 0 km/h
228 21-04-2021 20:55:00 13.8 C 7.27 g/m*3 13.8 C 0 km/h
229 21-04-2021 21:00:00 13.3 C 7.28 g/m*3 13.3 C 0 km/h
230 21-04-2021 21:05:00 12.8 C 7.28 g/m*3 12.8 C 0 km/h
231 21-04-2021 21:10:00 12.4 C 7.1 g/m*3 12.4 C 0 km/h
232 21-04-2021 21:15:00 12.4 C 7.1 g/m*3 12.4 C 6.4 km/h
233 21-04-2021 21:20:00 12.4 C 7.1 g/m*3 12.4 C 4.8 km/h
234 21-04-2021 21:25:00 12.6 C 7.19 g/m*3 12.6 C 6.4 km/h
235 21-04-2021 21:30:00 12.6 C 7.08 g/m*3 12.6 C 6.4 km/h
236 21-04-2021 21:35:00 12.6 C 7.08 g/m*3 12.6 C 6.4 km/h
237 21-04-2021 21:40:00 12.8 C 7.06 g/m*3 12.8 C 6.4 km/h
238 21-04-2021 21:45:00 12.9 C 7.21 g/m*3 12.9 C 1.6 km/h
239 21-04-2021 21:50:00 12.8 C 7.17 g/m*3 12.8 C 3.2 km/h
240 21-04-2021 21:55:00 12.7 C 7.12 g/m*3 12.7 C 6.4 km/h
241 21-04-2021 22:00:00 12.6 C 7.19 g/m*3 12.6 C 4.8 km/h
242 21-04-2021 22:05:00 12.7 C 7.24 g/m*3 12.7 C 11.3 km/h
243 21-04-2021 22:10:00 12.8 C 7.28 g/m*3 12.8 C 9.7 km/h
244 21-04-2021 22:15:00 12.8 C 7.39 g/m*3 12.8 C 6.4 km/h
245 21-04-2021 22:20:00 12.8 C 7.39 g/m*3 12.8 C 12.9 km/h
246 21-04-2021 22:25:00 12.8 C 7.5 g/m*3 12.8 C 8.1 km/h
247 21-04-2021 22:30:00 12.8 C 7.5 g/m*3 12.8 C 11.3 km/h
248 21-04-2021 22:35:00 12.7 C 7.46 g/m*3 12.7 C 8.1 km/h
249 21-04-2021 22:40:00 12.7 C 7.46 g/m*3 12.7 C 3.2 km/h
250 21-04-2021 22:45:00 12.5 C 7.48 g/m*3 12.5 C 8.1 km/h
Sensor: Nr:Datum:Temp:Abs-Feuchte:Windchill:Wind:
Aussen-T/F 251 21-04-2021 22:50:00 12.4 C 7.43 g/m*3 12.4 C 4.8 km/h
252 21-04-2021 22:55:00 12.3 C 7.49 g/m*3 12.3 C 8.1 km/h
253 21-04-2021 23:00:00 12.2 C 7.45 g/m*3 12.2 C 11.3 km/h
254 21-04-2021 23:05:00 12.1 C 7.4 g/m*3 12.1 C 11.3 km/h
255 21-04-2021 23:10:00 12 C 7.46 g/m*3 12 C 4.8 km/h
256 21-04-2021 23:15:00 11.9 C 7.41 g/m*3 11.9 C 6.4 km/h
257 21-04-2021 23:20:00 11.8 C 7.37 g/m*3 11.8 C 6.4 km/h
258 21-04-2021 23:25:00 11.8 C 7.37 g/m*3 11.8 C 11.3 km/h
259 21-04-2021 23:30:00 11.8 C 7.37 g/m*3 11.8 C 14.5 km/h
260 21-04-2021 23:35:00 11.8 C 7.37 g/m*3 11.8 C 9.7 km/h
261 21-04-2021 23:40:00 11.7 C 7.22 g/m*3 11.7 C 14.5 km/h
262 21-04-2021 23:45:00 11.6 C 7.17 g/m*3 11.6 C 14.5 km/h
263 21-04-2021 23:50:00 11.4 C 7.19 g/m*3 11.4 C 14.5 km/h
264 21-04-2021 23:55:00 11.3 C 7.14 g/m*3 11.3 C 8.1 km/h

Legende:
   Min
   Max


Maximal/Minimal-Werte vom 23.02.2003 - 22.04.2021

Sensor Min Max Avg
Temp
(Aussen-T/F)
-16.4 °C
20-12-2009  01:30:01
40.4 °C
25-07-2019  16:20:00
11.1 °C

Die Daten stammen von einer Davis Vantage Pro 2 Wetter-Station und werden unter Linux mit der Software wview2wettercgi und aufbereitet. Alle Angaben erfolgen ohne Gewähr für ihre Vollständigkeit oder Richtigkeit.
Kontakt: Rainer Krienke krienke@uni-koblenz.de . Meine Webseiten an der Uni Koblenz oder privat.
Version: $Revision: 0.78 $